createdAt,value
2017-05-13T00:01:18.258Z,99973
2017-05-13T00:03:47.310Z,99982
2017-05-13T00:06:16.250Z,99981
2017-05-13T00:08:45.648Z,99976
2017-05-13T00:11:14.605Z,99981
2017-05-13T00:13:43.558Z,100003
2017-05-13T00:16:12.763Z,100008
2017-05-13T00:18:41.700Z,100003
2017-05-13T00:21:10.985Z,100025
2017-05-13T00:23:39.926Z,100012
2017-05-13T00:26:08.878Z,100010
2017-05-13T00:28:37.882Z,100018
2017-05-13T00:31:06.865Z,100028
2017-05-13T00:33:36.170Z,100030
2017-05-13T00:36:05.176Z,100022
2017-05-13T00:38:34.149Z,100022
2017-05-13T00:41:03.868Z,100030
2017-05-13T00:43:32.827Z,100025
2017-05-13T00:46:02.127Z,100022
2017-05-13T00:48:31.093Z,100027
2017-05-13T00:51:00.050Z,100031
2017-05-13T00:53:28.999Z,100026
2017-05-13T00:55:58.397Z,100021
2017-05-13T00:58:27.702Z,100035
2017-05-13T01:00:56.646Z,100028
2017-05-13T01:03:25.635Z,100024
2017-05-13T01:05:54.589Z,100027
2017-05-13T01:08:24.291Z,100032
2017-05-13T01:10:53.584Z,100022
2017-05-13T01:13:22.541Z,100019
2017-05-13T01:15:51.484Z,100024
2017-05-13T01:18:21.202Z,100020
2017-05-13T01:20:50.898Z,100017
2017-05-13T01:23:20.209Z,100019
2017-05-13T01:25:49.166Z,100020
2017-05-13T01:28:18.150Z,100018
2017-05-13T01:30:47.176Z,100032
2017-05-13T01:33:16.889Z,100035
2017-05-13T01:35:46.211Z,100045
2017-05-13T01:38:15.194Z,100047
2017-05-13T01:40:44.155Z,100058
2017-05-13T01:43:13.870Z,100055
2017-05-13T01:45:42.830Z,100060
2017-05-13T01:48:12.162Z,100063
2017-05-13T01:50:41.870Z,100048
2017-05-13T01:53:10.875Z,100055
2017-05-13T01:55:40.629Z,100055
2017-05-13T01:58:09.596Z,100057
2017-05-13T02:00:38.575Z,100063
2017-05-13T02:03:07.508Z,100067
2017-05-13T02:05:36.831Z,100064
2017-05-13T02:08:05.818Z,100062
2017-05-13T02:10:34.757Z,100057
2017-05-13T02:13:03.732Z,100066
2017-05-13T02:15:32.744Z,100055
2017-05-13T02:18:02.924Z,100060
2017-05-13T02:20:31.882Z,100060
2017-05-13T02:23:00.843Z,100069
2017-05-13T02:25:29.926Z,100070
2017-05-13T02:27:58.874Z,100063
2017-05-13T02:30:29.378Z,100065
2017-05-13T02:32:58.387Z,100070
2017-05-13T02:35:27.336Z,100069
2017-05-13T02:37:56.290Z,100086
2017-05-13T02:40:25.248Z,100081
2017-05-13T02:42:56.030Z,100083
2017-05-13T02:45:24.978Z,100085
2017-05-13T02:47:53.924Z,100078
2017-05-13T02:50:22.898Z,100084
2017-05-13T02:52:51.842Z,100088
2017-05-13T02:55:21.228Z,100079
2017-05-13T02:57:50.221Z,100076
2017-05-13T03:00:19.151Z,100078
2017-05-13T03:02:48.103Z,100080
2017-05-13T03:05:17.102Z,100077
2017-05-13T03:07:46.411Z,100083
2017-05-13T03:10:15.364Z,100085
2017-05-13T03:12:45.073Z,100083
2017-05-13T03:15:14.799Z,100083
2017-05-13T03:17:43.763Z,100092
2017-05-13T03:20:14.003Z,100097
2017-05-13T03:22:42.965Z,100092
2017-05-13T03:25:11.914Z,100086
2017-05-13T03:27:40.882Z,100096
2017-05-13T03:30:09.838Z,100095
2017-05-13T03:32:39.144Z,100092
2017-05-13T03:35:08.838Z,100096
2017-05-13T03:37:37.795Z,100095
2017-05-13T03:40:06.851Z,100090
2017-05-13T03:42:36.555Z,100090
2017-05-13T03:45:06.568Z,100095
2017-05-13T03:47:35.566Z,100098
2017-05-13T03:50:05.271Z,100096
2017-05-13T03:52:34.966Z,100104
2017-05-13T03:55:03.918Z,100108
2017-05-13T03:57:33.227Z,100096
2017-05-13T04:00:02.161Z,100100
2017-05-13T04:02:31.847Z,100108
2017-05-13T04:05:00.827Z,100110
2017-05-13T04:07:29.809Z,100116
2017-05-13T04:09:59.136Z,100121
2017-05-13T04:12:28.080Z,100121
2017-05-13T04:14:57.159Z,100129
2017-05-13T04:17:26.122Z,100129
2017-05-13T04:19:55.813Z,100136
2017-05-13T04:22:25.137Z,100139
2017-05-13T04:24:54.897Z,100136
2017-05-13T04:27:23.839Z,100137
2017-05-13T04:29:53.534Z,100133
2017-05-13T04:32:22.494Z,100131
2017-05-13T04:34:51.836Z,100131
2017-05-13T04:37:20.801Z,100135
2017-05-13T04:39:50.377Z,100135
2017-05-13T04:42:19.332Z,100130
2017-05-13T04:44:49.029Z,100140
2017-05-13T04:47:18.317Z,100147
2017-05-13T04:49:47.300Z,100150
2017-05-13T04:52:16.243Z,100144
2017-05-13T04:54:45.287Z,100143
2017-05-13T04:57:14.240Z,100143
2017-05-13T04:59:43.572Z,100149
2017-05-13T05:02:12.518Z,100159
2017-05-13T05:04:41.463Z,100157
2017-05-13T05:07:11.293Z,100171
2017-05-13T05:09:40.987Z,100176
2017-05-13T05:12:09.967Z,100180
2017-05-13T05:14:38.910Z,100174
2017-05-13T05:17:07.987Z,100177
2017-05-13T05:19:37.721Z,100176
2017-05-13T05:22:06.665Z,100178
2017-05-13T05:24:36.063Z,100188
2017-05-13T05:27:05.031Z,100187
2017-05-13T05:29:33.985Z,100180
2017-05-13T05:32:02.962Z,100184
2017-05-13T05:34:31.909Z,100186
2017-05-13T05:37:01.237Z,100181
2017-05-13T05:39:30.177Z,100183
2017-05-13T05:41:59.133Z,100185
2017-05-13T05:44:28.092Z,100187
2017-05-13T05:46:57.054Z,100192
2017-05-13T05:49:26.383Z,100188
2017-05-13T05:51:55.453Z,100188
2017-05-13T05:54:24.443Z,100184
2017-05-13T05:56:53.434Z,100189
2017-05-13T05:59:22.371Z,100192
2017-05-13T06:01:51.770Z,100199
2017-05-13T06:04:20.733Z,100208
2017-05-13T06:06:49.697Z,100208
2017-05-13T06:09:19.472Z,100204
2017-05-13T06:11:49.182Z,100201
2017-05-13T06:14:18.439Z,100208
2017-05-13T06:16:47.997Z,100211
2017-05-13T06:19:16.952Z,100219
2017-05-13T06:21:45.918Z,100211
2017-05-13T06:24:14.958Z,100219
2017-05-13T06:26:44.262Z,100220
2017-05-13T06:29:13.281Z,100215
2017-05-13T06:31:42.246Z,100227
2017-05-13T06:34:11.259Z,100226
2017-05-13T06:36:40.261Z,100231
2017-05-13T06:39:09.571Z,100233
2017-05-13T06:41:38.538Z,100227
2017-05-13T06:44:07.495Z,100235
2017-05-13T06:46:36.458Z,100238
2017-05-13T06:49:05.473Z,100241
2017-05-13T06:51:34.875Z,100241
2017-05-13T06:54:03.856Z,100241
2017-05-13T06:56:32.810Z,100234
2017-05-13T06:59:01.794Z,100237
2017-05-13T07:01:30.782Z,100242
2017-05-13T07:04:00.127Z,100244
2017-05-13T07:06:29.082Z,100244
2017-05-13T07:08:58.058Z,100253
2017-05-13T07:11:27.027Z,100257
2017-05-13T07:13:55.974Z,100259
2017-05-13T07:16:25.307Z,100260
2017-05-13T07:18:54.281Z,100252
2017-05-13T07:21:23.369Z,100256
2017-05-13T07:23:52.359Z,100263
2017-05-13T07:26:21.811Z,100267
2017-05-13T07:28:51.912Z,100267
2017-05-13T07:31:20.868Z,100273
2017-05-13T07:33:49.851Z,100280
2017-05-13T07:36:18.864Z,100271
2017-05-13T07:38:47.828Z,100274
2017-05-13T07:41:17.308Z,100271
2017-05-13T07:43:47.840Z,100274
2017-05-13T07:46:16.819Z,100281
2017-05-13T07:48:47.367Z,100282
2017-05-13T07:51:16.365Z,100288
2017-05-13T07:53:45.752Z,100288
2017-05-13T07:56:14.741Z,100291
2017-05-13T07:58:43.761Z,100286
2017-05-13T08:01:12.851Z,100292
2017-05-13T08:03:41.869Z,100297
2017-05-13T08:06:10.874Z,100294
2017-05-13T08:08:39.822Z,100301
2017-05-13T08:11:09.108Z,100306
2017-05-13T08:13:38.095Z,100311
2017-05-13T08:16:07.156Z,100313
2017-05-13T08:18:36.899Z,100313
2017-05-13T08:21:05.939Z,100305
2017-05-13T08:23:35.263Z,100318
2017-05-13T08:26:04.266Z,100311
2017-05-13T08:28:33.266Z,100317
2017-05-13T08:31:03.219Z,100320
2017-05-13T08:33:32.199Z,100324
2017-05-13T08:36:01.167Z,100321
2017-05-13T08:38:30.883Z,100334
2017-05-13T08:41:00.592Z,100330
2017-05-13T08:43:29.982Z,100337
2017-05-13T08:45:59.075Z,100335
2017-05-13T08:48:28.052Z,100337
2017-05-13T08:50:57.109Z,100337
2017-05-13T08:53:26.104Z,100342
2017-05-13T08:55:55.447Z,100343
2017-05-13T08:58:25.169Z,100344
2017-05-13T09:00:54.142Z,100350
2017-05-13T09:03:23.165Z,100343
2017-05-13T09:05:52.174Z,100349
2017-05-13T09:08:21.463Z,100349
2017-05-13T09:10:50.423Z,100342
2017-05-13T09:13:19.978Z,100351
2017-05-13T09:15:49.019Z,100345
2017-05-13T09:18:18.707Z,100355
2017-05-13T09:20:48.257Z,100356
2017-05-13T09:23:17.236Z,100361
2017-05-13T09:25:46.938Z,100360
2017-05-13T09:28:16.675Z,100363
2017-05-13T09:30:45.628Z,100359
2017-05-13T09:33:15.044Z,100354
2017-05-13T09:35:44.893Z,100364
2017-05-13T09:38:13.882Z,100371
2017-05-13T09:40:42.839Z,100367
2017-05-13T09:43:12.995Z,100372
2017-05-13T09:45:42.401Z,100380
2017-05-13T09:48:11.362Z,100378
2017-05-13T09:50:40.303Z,100370
2017-05-13T09:53:09.400Z,100363
2017-05-13T09:55:38.491Z,100363
2017-05-13T09:58:07.958Z,100361
2017-05-13T10:00:37.164Z,100363
2017-05-13T10:03:06.164Z,100360
2017-05-13T10:05:35.111Z,100349
2017-05-13T10:08:04.808Z,100357
2017-05-13T10:10:34.140Z,100356
2017-05-13T10:13:03.104Z,100361
2017-05-13T10:15:32.082Z,100363
2017-05-13T10:18:01.080Z,100366
2017-05-13T10:20:30.029Z,100365
2017-05-13T10:22:59.405Z,100368
2017-05-13T10:25:28.444Z,100353
2017-05-13T10:27:57.407Z,100351
2017-05-13T10:30:26.428Z,100343
2017-05-13T10:32:55.430Z,100343
2017-05-13T10:35:24.752Z,100339
2017-05-13T10:37:53.733Z,100331
2017-05-13T10:40:22.695Z,100335
2017-05-13T10:42:51.716Z,100330
2017-05-13T10:45:20.900Z,100317
2017-05-13T10:47:50.198Z,100322
2017-05-13T10:50:19.152Z,100319
2017-05-13T10:52:48.109Z,100305
2017-05-13T10:55:17.817Z,100306
2017-05-13T10:57:47.565Z,100307
2017-05-13T11:00:17.030Z,100307
2017-05-13T11:02:46.762Z,100307
2017-05-13T11:05:15.713Z,100298
2017-05-13T11:07:44.734Z,100313
2017-05-13T11:10:14.459Z,100312
2017-05-13T11:12:43.718Z,100318
2017-05-13T11:15:12.726Z,100321
2017-05-13T11:17:42.454Z,100334
2017-05-13T11:20:11.556Z,100338
2017-05-13T11:22:40.545Z,100339
2017-05-13T11:25:09.886Z,100342
2017-05-13T11:27:38.833Z,100343
2017-05-13T11:30:07.806Z,100345
2017-05-13T11:32:37.579Z,100343
2017-05-13T11:35:06.528Z,100350
2017-05-13T11:37:35.893Z,100359
2017-05-13T11:40:04.879Z,100350
2017-05-13T11:42:33.858Z,100347
2017-05-13T11:45:02.847Z,100353
2017-05-13T11:47:31.813Z,100356
2017-05-13T11:50:01.182Z,100356
2017-05-13T11:52:30.856Z,100357
2017-05-13T11:54:59.821Z,100367
2017-05-13T11:57:28.787Z,100364
2017-05-13T11:59:57.775Z,100377
2017-05-13T12:02:27.172Z,100378
2017-05-13T12:04:56.150Z,100378
2017-05-13T12:07:25.848Z,100370
2017-05-13T12:09:54.877Z,100372
2017-05-13T12:12:23.843Z,100375
2017-05-13T12:14:53.908Z,100376
2017-05-13T12:17:22.927Z,100384
2017-05-13T12:19:51.879Z,100388
2017-05-13T12:22:20.855Z,100393
2017-05-13T12:24:49.823Z,100388
2017-05-13T12:27:19.219Z,100388
2017-05-13T12:29:48.167Z,100383
2017-05-13T12:32:17.152Z,100385
2017-05-13T12:34:46.137Z,100393
2017-05-13T12:37:15.091Z,100393
2017-05-13T12:39:44.393Z,100398
2017-05-13T12:42:14.099Z,100400
2017-05-13T12:44:43.101Z,100396
2017-05-13T12:47:12.888Z,100396
2017-05-13T12:49:42.847Z,100412
2017-05-13T12:52:12.241Z,100412
2017-05-13T12:54:41.231Z,100410
2017-05-13T12:57:10.192Z,100411
2017-05-13T12:59:39.183Z,100417
2017-05-13T13:02:08.260Z,100417
2017-05-13T13:04:37.220Z,100428
2017-05-13T13:07:06.184Z,100426
2017-05-13T13:09:35.910Z,100450
2017-05-13T13:12:04.874Z,100441
2017-05-13T13:14:33.856Z,100448
2017-05-13T13:17:02.848Z,100443
2017-05-13T13:19:31.791Z,100443
2017-05-13T13:22:00.846Z,100448
2017-05-13T13:24:30.847Z,100447
2017-05-13T13:26:59.924Z,100434
2017-05-13T13:29:28.900Z,100441
2017-05-13T13:31:57.860Z,100445
2017-05-13T13:34:26.833Z,100456
2017-05-13T13:36:56.534Z,100450
2017-05-13T13:39:26.247Z,100443
2017-05-13T13:41:55.982Z,100448
2017-05-13T13:44:24.950Z,100447
2017-05-13T13:46:54.644Z,100444
2017-05-13T13:49:23.619Z,100451
2017-05-13T13:51:52.586Z,100453
2017-05-13T13:54:21.550Z,100456
2017-05-13T13:56:50.486Z,100448
2017-05-13T13:59:19.568Z,100446
2017-05-13T14:01:48.682Z,100443
2017-05-13T14:04:17.678Z,100446
2017-05-13T14:06:46.684Z,100448
2017-05-13T14:09:16.442Z,100456
2017-05-13T14:11:45.472Z,100454
2017-05-13T14:14:14.466Z,100453
2017-05-13T14:16:43.416Z,100456
2017-05-13T14:19:12.374Z,100465
2017-05-13T14:21:41.597Z,100462
2017-05-13T14:24:10.566Z,100466
2017-05-13T14:26:40.342Z,100469
2017-05-13T14:29:09.356Z,100476
2017-05-13T14:31:38.328Z,100482
2017-05-13T14:34:07.322Z,100484
2017-05-13T14:36:36.321Z,100485
2017-05-13T14:39:05.319Z,100484
2017-05-13T14:41:34.256Z,100491
2017-05-13T14:44:03.350Z,100497
2017-05-13T14:46:32.324Z,100500
2017-05-13T14:49:01.308Z,100511
2017-05-13T14:51:31.398Z,100501
2017-05-13T14:54:00.395Z,100501
2017-05-13T14:56:29.381Z,100503
2017-05-13T14:58:58.383Z,100506
2017-05-13T15:01:27.337Z,100502
2017-05-13T15:03:56.289Z,100498
2017-05-13T15:06:25.337Z,100494
2017-05-13T15:08:54.322Z,100490
2017-05-13T15:11:23.291Z,100487
2017-05-13T15:13:52.322Z,100480
2017-05-13T15:16:21.304Z,100485
2017-05-13T15:18:50.729Z,100484
2017-05-13T15:21:19.745Z,100477
2017-05-13T15:23:49.435Z,100486
2017-05-13T15:26:18.476Z,100480
2017-05-13T15:28:47.426Z,100493
2017-05-13T15:31:17.566Z,100480
2017-05-13T15:33:46.569Z,100480
2017-05-13T15:36:15.606Z,100477
2017-05-13T15:38:44.556Z,100476
2017-05-13T15:41:13.519Z,100479
2017-05-13T15:43:43.594Z,100480
2017-05-13T15:46:12.541Z,100478
2017-05-13T15:48:41.502Z,100485
2017-05-13T15:51:10.454Z,100484
2017-05-13T15:53:39.394Z,100476
2017-05-13T15:56:09.556Z,100473
2017-05-13T15:58:38.538Z,100471
2017-05-13T16:01:07.513Z,100479
2017-05-13T16:03:36.478Z,100476
2017-05-13T16:06:05.446Z,100482
2017-05-13T16:08:34.842Z,100478
2017-05-13T16:11:03.875Z,100484
2017-05-13T16:13:32.875Z,100486
2017-05-13T16:16:02.587Z,100491
2017-05-13T16:18:32.287Z,100490
2017-05-13T16:21:02.256Z,100489
2017-05-13T16:23:31.855Z,100483
2017-05-13T16:26:00.827Z,100487
2017-05-13T16:28:29.782Z,100485
2017-05-13T16:30:58.742Z,100488
2017-05-13T16:33:28.079Z,100476
2017-05-13T16:35:57.819Z,100469
2017-05-13T16:38:26.760Z,100473
2017-05-13T16:40:55.723Z,100467
2017-05-13T16:43:25.732Z,100455
2017-05-13T16:45:55.072Z,100445
2017-05-13T16:48:24.033Z,100454
2017-05-13T16:50:53.051Z,100457
2017-05-13T16:53:22.005Z,100463
2017-05-13T16:55:50.944Z,100467
2017-05-13T16:58:20.372Z,100472
2017-05-13T17:00:49.339Z,100487
2017-05-13T17:03:18.310Z,100498
2017-05-13T17:05:47.332Z,100499
2017-05-13T17:08:17.042Z,100503
2017-05-13T17:10:47.222Z,100519
2017-05-13T17:13:16.185Z,100516
2017-05-13T17:15:45.199Z,100522
2017-05-13T17:18:14.193Z,100526
2017-05-13T17:20:43.143Z,100535
2017-05-13T17:23:13.353Z,100536
2017-05-13T17:25:43.688Z,100539
2017-05-13T17:28:13.778Z,100535
2017-05-13T17:30:43.229Z,100541
2017-05-13T17:33:12.299Z,100548
2017-05-13T17:35:42.044Z,100556
2017-05-13T17:38:11.037Z,100559
2017-05-13T17:40:40.451Z,100559
2017-05-13T17:43:09.442Z,100564
2017-05-13T17:45:38.401Z,100564
2017-05-13T17:48:07.379Z,100567
2017-05-13T17:50:37.327Z,100569
2017-05-13T17:53:06.693Z,100581
2017-05-13T17:55:36.438Z,100593
2017-05-13T17:58:05.478Z,100615
2017-05-13T18:00:34.455Z,100652
2017-05-13T18:03:03.451Z,100646
2017-05-13T18:05:32.452Z,100642
2017-05-13T18:08:01.395Z,100652
2017-05-13T18:10:30.665Z,100666
2017-05-13T18:12:59.648Z,100669
2017-05-13T18:15:29.421Z,100666
2017-05-13T18:17:58.403Z,100671
2017-05-13T18:20:27.357Z,100683
2017-05-13T18:22:56.876Z,100685
2017-05-13T18:25:25.855Z,100681
2017-05-13T18:27:55.254Z,100688
2017-05-13T18:30:24.288Z,100681
2017-05-13T18:32:53.321Z,100685
2017-05-13T18:35:23.419Z,100696
2017-05-13T18:37:52.367Z,100705
2017-05-13T18:40:21.318Z,100712
2017-05-13T18:42:51.032Z,100722
2017-05-13T18:45:20.739Z,100727
2017-05-13T18:47:50.743Z,100726
2017-05-13T18:50:19.709Z,100728
2017-05-13T18:52:48.708Z,100732
2017-05-13T18:55:17.680Z,100738
2017-05-13T18:57:46.683Z,100747
2017-05-13T19:00:16.113Z,100737
2017-05-13T19:02:45.518Z,100736
2017-05-13T19:05:15.028Z,100739
2017-05-13T19:07:44.755Z,100732
2017-05-13T19:10:13.712Z,100736
2017-05-13T19:12:43.123Z,100734
2017-05-13T19:15:12.059Z,100743
2017-05-13T19:17:41.018Z,100745
2017-05-13T19:20:10.833Z,100744
2017-05-13T19:22:40.475Z,100742
2017-05-13T19:25:09.841Z,100730
2017-05-13T19:27:39.544Z,100727
2017-05-13T19:30:09.636Z,100707
2017-05-13T19:32:38.613Z,100696
2017-05-13T19:35:07.584Z,100699
2017-05-13T19:37:36.566Z,100695
2017-05-13T19:40:05.543Z,100687
2017-05-13T19:42:34.944Z,100681
2017-05-13T19:45:03.928Z,100676
2017-05-13T19:47:33.663Z,100671
2017-05-13T19:50:02.683Z,100671
2017-05-13T19:52:31.639Z,100668
2017-05-13T19:55:01.156Z,100673
2017-05-13T19:57:30.115Z,100669
2017-05-13T19:59:59.835Z,100669
2017-05-13T20:02:28.796Z,100660
2017-05-13T20:04:57.864Z,100659
2017-05-13T20:07:27.179Z,100660
2017-05-13T20:09:56.153Z,100659
2017-05-13T20:12:25.123Z,100669
2017-05-13T20:14:54.063Z,100669
2017-05-13T20:17:23.039Z,100671
2017-05-13T20:19:52.372Z,100677
2017-05-13T20:22:22.060Z,100683
2017-05-13T20:24:50.996Z,100700
2017-05-13T20:27:19.995Z,100704
2017-05-13T20:29:49.056Z,100712
2017-05-13T20:32:19.078Z,100714
2017-05-13T20:34:48.892Z,100717
2017-05-13T20:37:18.594Z,100718
2017-05-13T20:39:48.309Z,100722
2017-05-13T20:42:17.303Z,100720
2017-05-13T20:44:46.681Z,100732
2017-05-13T20:47:15.648Z,100724
2017-05-13T20:49:44.595Z,100728
2017-05-13T20:52:13.598Z,100739
2017-05-13T20:54:42.554Z,100734
2017-05-13T20:57:12.515Z,100730
2017-05-13T20:59:41.562Z,100730
2017-05-13T21:02:11.312Z,100738
2017-05-13T21:04:40.277Z,100736
2017-05-13T21:07:09.950Z,100736
2017-05-13T21:09:39.267Z,100746
2017-05-13T21:12:08.975Z,100745
2017-05-13T21:14:38.683Z,100744
2017-05-13T21:17:08.428Z,100771
2017-05-13T21:19:37.386Z,100750
2017-05-13T21:22:07.400Z,100779
2017-05-13T21:24:36.360Z,100769
2017-05-13T21:27:05.372Z,100778
2017-05-13T21:29:34.350Z,100761
2017-05-13T21:32:03.291Z,100783
2017-05-13T21:34:32.710Z,100771
2017-05-13T21:37:17.336Z,100764
2017-05-13T21:39:47.368Z,100768
2017-05-13T21:42:16.357Z,100766
2017-05-13T21:44:45.329Z,100760
2017-05-13T21:47:15.027Z,100757
2017-05-13T21:49:44.021Z,100754
2017-05-13T21:52:13.418Z,100755
2017-05-13T21:54:42.384Z,100746
2017-05-13T21:57:11.519Z,100761
2017-05-13T21:59:41.360Z,100756
2017-05-13T22:02:10.286Z,100756
2017-05-13T22:04:39.630Z,100751
2017-05-13T22:07:09.326Z,100760
2017-05-13T22:09:39.574Z,100766
2017-05-13T22:12:08.539Z,100755
2017-05-13T22:14:37.494Z,100763
2017-05-13T22:17:06.594Z,100774
2017-05-13T22:19:35.583Z,100773
2017-05-13T22:22:04.920Z,100777
2017-05-13T22:24:33.927Z,100774
2017-05-13T22:27:03.604Z,100777
2017-05-13T22:29:32.563Z,100784
2017-05-13T22:32:01.517Z,100791
2017-05-13T22:34:31.498Z,100796
2017-05-13T22:37:00.443Z,100793
2017-05-13T22:39:29.414Z,100797
2017-05-13T22:41:59.139Z,100798
2017-05-13T22:44:28.105Z,100799
2017-05-13T22:46:58.133Z,100799
2017-05-13T22:49:27.838Z,100798
2017-05-13T22:51:57.559Z,100799
2017-05-13T22:54:26.530Z,100810
2017-05-13T22:56:56.305Z,100805
2017-05-13T22:59:25.644Z,100805
2017-05-13T23:01:55.335Z,100805
2017-05-13T23:04:24.324Z,100807
2017-05-13T23:06:53.350Z,100799
2017-05-13T23:09:23.052Z,100797
2017-05-13T23:11:52.757Z,100808
2017-05-13T23:14:22.453Z,100815
2017-05-13T23:16:51.393Z,100822
2017-05-13T23:19:20.350Z,100821
2017-05-13T23:21:50.044Z,100825
2017-05-13T23:24:19.210Z,100823
2017-05-13T23:26:48.174Z,100821
2017-05-13T23:29:17.149Z,100826
2017-05-13T23:31:46.102Z,100828
2017-05-13T23:34:15.180Z,100846
2017-05-13T23:36:44.147Z,100839
2017-05-13T23:39:13.117Z,100834
2017-05-13T23:41:42.110Z,100834
2017-05-13T23:44:11.095Z,100838
2017-05-13T23:46:40.058Z,100838
2017-05-13T23:49:08.989Z,100857
2017-05-13T23:51:37.931Z,100860
2017-05-13T23:54:06.876Z,100862
2017-05-13T23:56:35.840Z,100866
2017-05-13T23:59:05.514Z,100862
